Medlin's Ranch, Nevada Weather observations

Data are for observation ending at time listed.
 Day   Time    Ave.   Ave.  Ave.  Vector   Max.   Stn.    Total    Solar   Ave.  
  of    of     Air    Rel.  Wind   Wind    Wind   Baro.  Precip.   Rad.    Soil  
Year   Day     Temp.  Hum.  Speed  Dir.    Gust   Pres.                    Temp. 
2015   (PST)    F      %     mph   deg.    mph     mb.     in.     W/m2     F   
------------------------------------------------------------------------------
 214   11:00   82.7    28    4.8   126     12.4    865     0.00     544    78.8
 214   12:00   84.8    26    4.4   118     11.3    865     0.00     640    80.8
 214   13:00   87.0    22    5.2   143     14.1    864     0.00     812    82.7
 214   14:00   89.1    17    6.3   202     15.9    864     0.00     811    84.7
 214   15:00   89.8    16    8.9   214     17.5    863     0.00     670    86.4
 214   16:00   89.8    17    6.1   220     14.5    862     0.00     449    87.7
 214   17:00   90.5    16    5.7   215     17.2    862     0.00     401    88.6
 214   18:00   90.1    15    5.8   251     12.8    862     0.00     216    88.9
 214   19:00   86.1    21    3.1    50      7.5    862     0.00      34    88.6
 214   20:00   81.2    27    4.0   320      7.2    862     0.00       0    87.6
 214   21:00   75.5    34    3.8   288      5.8    862     0.00       0    86.3
 214   22:00   71.6    36    3.9   263      5.3    862     0.00       0    85.0
 214   23:00   68.5    38    2.4   289      5.3    862     0.00       0    83.7
 215    0:00   67.0    40    3.6   263      5.8    862     0.00       0    82.4
 215    1:00   66.1    41    3.6   270      5.4    862     0.00       0    81.1
 215    2:00   63.4    44    3.3   286      5.4    862     0.00       0    80.1
 215    3:00   63.8    45    3.0   266      5.4    863     0.00       0    79.1
 215    4:00   62.4    47    3.3   264      4.7    863     0.00       0    78.1
 215    5:00   62.1    46    4.2   254      5.8    863     0.00       1    77.1
 215    6:00   65.8    41    1.9   266      4.1    864     0.00      83    76.3
 215    7:00   75.8    29    2.5   339      5.1    864     0.00     281    75.7
 215    8:00   83.6    20    2.2   134     10.2    864     0.00     490    75.9
 215    9:00   86.9    16    5.3   182     13.3    864     0.00     681    77.8
 215   10:00   89.1    13    8.0   190     19.6    864     0.00     840    80.8

Return to Medlin's Ranch, Nevada graphs page.


Western Regional Climate Center,wrcc@dri.edu